Etusivu
METAR-TAF:

METAR-TAF

Lentoasemat :

Jacksonville Municipal Airport

Jacksonville, Illinois, Yhdysvallat

Leveyspiiri: 39-46-27N, Pituuspiiri: 090-14-19W, korkeus merenpinnasta: 190 m

Tämänhetkinen sää

Tämä raportti tehtiin 27 minuuttia sitten, kello 16.35 UTC
Tuuli 9 kn lounaasta
Lämpötila 31°C
Kosteus 71%
Ilmanpaine 1014 hPa
Näkyvyys: 16.1 km
selkeää

METAR: KIJX 101635Z AUTO 22009KT 10SM CLR 31/25 A2995 RMK AO2 T03100254

Aika: 12:02 (17:02 UTC)


TAF: puuttuu

Säähavainnot ja -ennusteet yli 4000 lentoasemalta (METAR- ja TAF-raportit).

Käytössä olevat sääasemat on merkitty karttaan keltaisilla ja punaisilla pisteillä.

Aseta hiiri pisteen päälle nähdäksesi sääaseman nimen.

Klikkaa sitten nähdäksesi säähavainnot ja -ennusteet.

Kartan vaihtaminen: klikkaa mustalla rastilla varustettuja vihreitä pisteitä, niin voit zoomata sisään; viivalla varustettua vihreää pistettä, niin voit zoomata ulos tai vihreitä nuolia, niin pääset viereisille kartoille.


METAR-TAF: